McCullough, Alabama
Current Conditions -  °F | °C
As of 9:53 PM on Tuesday 21 Oct 2014 (Local Time) from KGZH Reporting Station
Clear Clear  
Wind Chill: 57°   Ceiling: Unl
Heat Index: 57°   Visibility: 8mi
Dew Point: 54°   Wind: 0mph
Humidity: 89%   Direction: NA
Pressure: 30.04"   Gusts: NA
Location:  31.1324°N, 87.4695°W
Report Text: KGZH 220253Z AUTO 00000KT 8SM CLR 14/12 A3004 RMK AO2 SLP169 T01390122 53018
Loading
Personal Weather Stations






























Interactive Weather Map
Tropical Storm Tracking
New forecast layout! Learn more

10-Day Weather Forecast

Advertisements
Track Severe Weather on mobile